Time;durP1;ratioP1;P1;durP2;ratioP2;P2;SDS_P1;SDS_P2;PMS_P1;PMS_P2;Temp;Humidity;BMP_temperature;BMP_pressure;BME280_temperature;BME280_humidity;BME280_pressure;Samples;Min_cycle;Max_cycle;Signal;HPM_P1;HPM_P2
2022/01/15 00:02:18;;;;;;;115.95;54.40;;;;;;;-1.68;100.00;98853.50;5110111;28;20024;-74
2022/01/15 00:04:43;;;;;;;107.18;55.22;;;;;;;-1.79;100.00;98846.03;5109380;28;20038;-77
2022/01/15 00:07:09;;;;;;;108.32;55.08;;;;;;;-1.72;100.00;98840.69;5109352;28;20164;-74
2022/01/15 00:09:34;;;;;;;107.22;50.50;;;;;;;-1.71;100.00;98848.53;5110089;28;20114;-76
2022/01/15 00:12:00;;;;;;;113.65;53.75;;;;;;;-1.72;100.00;98846.03;5113709;28;20031;-77
2022/01/15 00:14:30;;;;;;;110.68;52.03;;;;;;;-1.80;100.00;98847.03;5114159;28;20038;-75
2022/01/15 00:17:04;;;;;;;114.60;51.15;;;;;;;-1.88;100.00;98855.19;5113829;28;20026;-76
2022/01/15 00:19:49;;;;;;;100.80;50.80;;;;;;;-1.96;100.00;98852.69;5113611;28;20496;-76
2022/01/15 00:22:17;;;;;;;106.90;50.97;;;;;;;-1.92;100.00;98853.13;5111553;28;20518;-75
2022/01/15 00:24:44;;;;;;;102.13;52.92;;;;;;;-1.80;100.00;98862.28;5120695;28;20019;-74
2022/01/15 00:27:10;;;;;;;115.55;56.88;;;;;;;-1.76;100.00;98868.94;5120699;28;20027;-76
2022/01/15 00:29:36;;;;;;;111.15;54.28;;;;;;;-1.79;100.00;98850.56;5114434;28;20030;-75
2022/01/15 00:32:03;;;;;;;125.25;57.22;;;;;;;-1.91;100.00;98852.09;5113804;28;20023;-75
2022/01/15 00:34:29;;;;;;;143.05;67.38;;;;;;;-1.91;100.00;98868.19;5114420;28;20027;-74
2022/01/15 00:36:55;;;;;;;121.55;60.63;;;;;;;-1.95;100.00;98870.44;5114245;28;20030;-74
2022/01/15 00:39:22;;;;;;;109.13;53.83;;;;;;;-2.02;100.00;98872.22;5113531;28;20031;-76
2022/01/15 00:41:47;;;;;;;122.18;57.55;;;;;;;-1.96;100.00;98878.63;5111825;28;20027;-73
2022/01/15 00:44:12;;;;;;;118.90;55.35;;;;;;;-1.91;100.00;98878.91;5117244;28;20032;-76
2022/01/15 00:46:38;;;;;;;125.78;57.13;;;;;;;-1.92;100.00;98875.41;5115828;27;20059;-75
2022/01/15 00:49:04;;;;;;;113.32;55.22;;;;;;;-1.96;100.00;98875.97;5115489;27;20489;-77
2022/01/15 00:51:29;;;;;;;115.00;55.97;;;;;;;-1.95;100.00;98869.59;5115082;28;20110;-79
2022/01/15 00:53:55;;;;;;;104.13;54.63;;;;;;;-1.89;100.00;98882.22;5114528;28;20395;-78
2022/01/15 00:56:20;;;;;;;109.82;54.17;;;;;;;-1.91;100.00;98886.94;5112858;28;20027;-78
2022/01/15 00:58:46;;;;;;;124.15;56.42;;;;;;;-1.98;100.00;98886.88;5114744;28;20084;-76
2022/01/15 01:01:13;;;;;;;109.93;55.22;;;;;;;-1.98;100.00;98892.25;5115032;28;20054;-79
2022/01/15 01:03:38;;;;;;;104.85;52.80;;;;;;;-1.97;100.00;98880.50;5115756;28;20026;-81
2022/01/15 01:06:04;;;;;;;102.15;52.72;;;;;;;-1.96;100.00;98886.69;5116436;28;20023;-83
2022/01/15 01:08:29;;;;;;;106.43;51.22;;;;;;;-1.98;100.00;98894.09;5116169;28;20080;-83
2022/01/15 01:11:02;;;;;;;97.38;49.60;;;;;;;-2.05;100.00;98898.56;5115649;28;20537;-79
2022/01/15 01:20:02;;;;;;;97.93;50.90;;;;;;;-1.97;100.00;98901.13;5115503;28;20027;-76
2022/01/15 01:24:23;;;;;;;102.57;47.47;;;;;;;-2.11;100.00;98924.28;5113929;28;20032;-77
2022/01/15 01:29:46;;;;;;;100.10;51.08;;;;;;;-2.12;100.00;98908.38;5106361;27;20054;-75
2022/01/15 01:34:52;;;;;;;111.30;49.20;;;;;;;-2.04;100.00;98919.81;5113581;27;20433;-76
2022/01/15 01:37:29;;;;;;;99.70;50.63;;;;;;;-1.95;100.00;98915.16;5113655;28;20027;-77
2022/01/15 01:40:07;;;;;;;92.80;47.20;;;;;;;-2.15;100.00;98906.91;5114737;28;20038;-78
2022/01/15 01:42:43;;;;;;;92.07;47.30;;;;;;;-2.06;100.00;98912.97;5113637;28;20027;-76
2022/01/15 01:45:13;;;;;;;98.47;47.08;;;;;;;-1.94;100.00;98922.97;5114029;28;20019;-76
2022/01/15 01:47:41;;;;;;;96.45;48.45;;;;;;;-2.04;100.00;98905.59;5113218;28;20531;-74
2022/01/15 01:50:09;;;;;;;101.53;46.70;;;;;;;-2.20;100.00;98918.22;5112312;28;20460;-77
2022/01/15 01:52:35;;;;;;;99.25;47.72;;;;;;;-2.16;100.00;98916.78;5112263;28;20019;-75
2022/01/15 01:55:01;;;;;;;97.55;48.22;;;;;;;-2.13;100.00;98917.44;5112866;27;20026;-74
2022/01/15 01:57:26;;;;;;;99.97;49.80;;;;;;;-2.24;100.00;98924.13;5112400;27;20040;-74
2022/01/15 01:59:52;;;;;;;97.45;48.40;;;;;;;-2.32;100.00;98925.06;5094092;28;20043;-75
2022/01/15 02:02:17;;;;;;;85.45;41.78;;;;;;;-2.34;100.00;98920.94;5112668;28;20061;-76
2022/01/15 02:04:42;;;;;;;77.78;41.28;;;;;;;-2.32;100.00;98930.44;5112789;28;20039;-75
2022/01/15 02:07:08;;;;;;;85.78;41.35;;;;;;;-2.30;100.00;98928.41;5112893;28;20110;-76
2022/01/15 02:09:35;;;;;;;97.30;46.03;;;;;;;-2.34;100.00;98918.25;5113702;28;20118;-75
2022/01/15 02:12:00;;;;;;;77.05;39.92;;;;;;;-2.29;100.00;98932.72;5111734;28;20023;-76
2022/01/15 02:14:26;;;;;;;81.47;39.80;;;;;;;-2.27;100.00;98928.03;5113640;28;20027;-77
2022/01/15 02:16:52;;;;;;;85.28;41.42;;;;;;;-2.28;100.00;98929.03;5113464;28;20027;-80
2022/01/15 02:19:17;;;;;;;81.82;40.58;;;;;;;-2.20;100.00;98933.47;5113442;28;20035;-79
2022/01/15 02:24:17;;;;;;;82.65;41.58;;;;;;;-2.27;100.00;98932.53;5113887;28;20443;-79
2022/01/15 02:26:42;;;;;;;79.75;39.10;;;;;;;-2.23;100.00;98923.13;5113847;28;20087;-82
2022/01/15 02:29:09;;;;;;;78.13;39.58;;;;;;;-2.28;100.00;98926.34;5130854;28;20024;-79
2022/01/15 02:31:36;;;;;;;90.35;40.97;;;;;;;-2.30;100.00;98930.25;5122542;28;20085;-79
2022/01/15 02:34:05;;;;;;;78.88;41.03;;;;;;;-2.26;100.00;98935.06;5113919;28;20028;-82
2022/01/15 02:36:35;;;;;;;86.45;42.47;;;;;;;-2.21;100.00;98932.63;5115724;28;20034;-76
2022/01/15 02:39:01;;;;;;;87.18;43.05;;;;;;;-2.11;100.00;98928.81;5111680;28;20392;-76
2022/01/15 02:41:28;;;;;;;88.13;40.85;;;;;;;-2.33;100.00;98926.09;5113220;28;20036;-76
2022/01/15 02:43:56;;;;;;;93.38;45.53;;;;;;;-2.38;100.00;98936.53;5112922;28;20023;-78
2022/01/15 02:48:52;;;;;;;77.00;37.72;;;;;;;-2.31;100.00;98934.78;5115794;28;20119;-82
2022/01/15 02:51:20;;;;;;;74.78;39.75;;;;;;;-2.28;100.00;98931.72;5118979;28;20023;-81
2022/01/15 02:53:50;;;;;;;75.30;38.60;;;;;;;-2.34;100.00;98929.78;5113346;28;20023;-77
2022/01/15 02:56:31;;;;;;;73.65;37.50;;;;;;;-2.43;100.00;98922.91;5068943;27;20384;-77
2022/01/15 02:58:57;;;;;;;81.68;37.22;;;;;;;-2.59;100.00;98923.13;5067445;28;20082;-78
2022/01/15 03:01:23;;;;;;;71.63;38.17;;;;;;;-2.53;100.00;98922.34;5067193;28;20060;-80
2022/01/15 03:03:49;;;;;;;70.65;35.92;;;;;;;-2.55;100.00;98929.75;5067185;28;20059;-77
2022/01/15 03:06:17;;;;;;;68.50;36.95;;;;;;;-2.50;100.00;98930.00;5067123;28;20108;-77
2022/01/15 03:08:44;;;;;;;76.72;37.30;;;;;;;-2.50;100.00;98935.38;5068434;28;20029;-78
2022/01/15 03:11:10;;;;;;;74.97;37.03;;;;;;;-2.51;100.00;98932.91;5068297;28;20469;-78
2022/01/15 03:13:37;;;;;;;72.18;37.00;;;;;;;-2.44;100.00;98939.97;5068051;28;20036;-77
2022/01/15 03:16:04;;;;;;;74.10;37.50;;;;;;;-2.47;100.00;98945.72;5068041;28;20032;-79
2022/01/15 03:18:30;;;;;;;67.38;34.65;;;;;;;-2.54;100.00;98939.47;5068854;28;20037;-79
2022/01/15 03:20:55;;;;;;;71.32;35.08;;;;;;;-2.46;100.00;98950.06;5067021;28;20021;-77
2022/01/15 03:23:21;;;;;;;72.15;34.47;;;;;;;-2.51;100.00;98955.16;5066999;28;20401;-78
2022/01/15 03:25:46;;;;;;;70.10;36.55;;;;;;;-2.53;100.00;98954.50;5068229;28;20017;-78
2022/01/15 03:28:12;;;;;;;78.70;38.38;;;;;;;-2.55;100.00;98950.34;5067881;28;20033;-77
2022/01/15 03:30:38;;;;;;;73.90;37.05;;;;;;;-2.46;100.00;98955.41;5069231;28;20120;-80
2022/01/15 03:33:04;;;;;;;73.18;36.20;;;;;;;-2.49;100.00;98950.44;5067837;28;20032;-80
2022/01/15 03:35:29;;;;;;;77.20;36.95;;;;;;;-2.62;100.00;98960.13;5067971;28;20760;-79
2022/01/15 03:37:55;;;;;;;71.38;36.50;;;;;;;-2.64;100.00;98971.03;5067237;28;20118;-81
2022/01/15 03:40:20;;;;;;;86.35;40.85;;;;;;;-2.62;100.00;98968.16;5066512;28;20035;-79
2022/01/15 03:42:46;;;;;;;77.22;38.67;;;;;;;-2.74;100.00;98963.31;5066459;28;20381;-80
2022/01/15 03:45:13;;;;;;;86.25;39.97;;;;;;;-2.77;100.00;98968.19;5068054;28;20064;-80
2022/01/15 03:47:40;;;;;;;79.32;39.50;;;;;;;-2.76;100.00;98986.72;5066141;28;20481;-80
2022/01/15 03:50:06;;;;;;;76.22;39.35;;;;;;;-2.80;100.00;98973.91;5067445;28;20115;-79
2022/01/15 03:52:32;;;;;;;83.97;41.88;;;;;;;-2.80;100.00;98979.28;5067165;28;20548;-78
2022/01/15 03:54:57;;;;;;;82.18;41.17;;;;;;;-2.91;100.00;98979.72;5066940;28;20144;-79
2022/01/15 03:57:23;;;;;;;81.43;39.97;;;;;;;-2.84;100.00;98977.97;5067057;28;20063;-78
2022/01/15 03:59:49;;;;;;;80.43;40.08;;;;;;;-2.77;100.00;98984.25;5066129;28;20013;-78
2022/01/15 04:02:14;;;;;;;83.00;40.95;;;;;;;-2.83;100.00;98988.50;5067400;28;20028;-79
2022/01/15 04:04:40;;;;;;;82.65;42.75;;;;;;;-2.88;100.00;98992.75;5067507;28;20074;-78
2022/01/15 04:07:06;;;;;;;84.53;39.22;;;;;;;-2.86;100.00;98991.56;5057329;28;20470;-78
2022/01/15 04:09:31;;;;;;;78.07;38.83;;;;;;;-2.83;100.00;98991.19;5053501;28;20111;-77
2022/01/15 04:11:56;;;;;;;83.03;41.05;;;;;;;-2.84;100.00;99005.56;5052637;28;20013;-78
2022/01/15 04:14:22;;;;;;;81.22;40.95;;;;;;;-2.97;100.00;98994.66;5052745;28;20383;-80
2022/01/15 04:16:47;;;;;;;84.82;40.78;;;;;;;-3.00;100.00;99007.56;5054507;28;20037;-80
2022/01/15 04:19:13;;;;;;;84.47;39.30;;;;;;;-2.99;100.00;99003.91;5054271;28;20088;-79
2022/01/15 04:21:38;;;;;;;86.72;41.50;;;;;;;-3.02;100.00;99006.94;5052890;28;20370;-80
2022/01/15 04:24:04;;;;;;;79.25;40.33;;;;;;;-2.99;100.00;99014.59;5052799;28;20094;-79
2022/01/15 04:26:30;;;;;;;82.88;39.97;;;;;;;-2.95;100.00;99002.53;5055117;28;20033;-77
2022/01/15 04:29:05;;;;;;;75.55;39.80;;;;;;;-2.97;100.00;99012.56;5053015;28;20039;-77
2022/01/15 04:31:46;;;;;;;81.63;39.80;;;;;;;-2.94;100.00;99014.88;5053014;28;20016;-79
2022/01/15 04:34:13;;;;;;;79.18;39.65;;;;;;;-3.04;100.00;99011.66;5060119;28;20041;-78
2022/01/15 04:36:38;;;;;;;80.53;41.33;;;;;;;-2.95;100.00;99021.25;5069947;28;20021;-77
2022/01/15 04:39:04;;;;;;;83.78;42.92;;;;;;;-2.99;100.00;99010.09;5053928;28;20032;-78
2022/01/15 04:41:29;;;;;;;79.97;41.45;;;;;;;-2.98;100.00;99017.09;5053809;28;20040;-78
2022/01/15 04:43:54;;;;;;;75.82;38.95;;;;;;;-2.94;100.00;99022.91;5052129;28;20082;-78
2022/01/15 04:46:20;;;;;;;88.65;39.40;;;;;;;-2.90;100.00;99021.53;5052460;28;20040;-79
2022/01/15 04:48:45;;;;;;;81.60;41.72;;;;;;;-2.94;100.00;99025.56;5053604;28;20478;-77
2022/01/15 04:51:10;;;;;;;76.55;40.38;;;;;;;-2.97;100.00;99021.41;5053445;28;20033;-78
2022/01/15 04:53:36;;;;;;;81.97;41.78;;;;;;;-2.96;100.00;99023.09;5053293;28;20039;-79
2022/01/15 04:56:01;;;;;;;83.85;42.53;;;;;;;-3.00;100.00;99031.66;5053259;28;20408;-78
2022/01/15 04:58:27;;;;;;;76.22;40.83;;;;;;;-2.91;100.00;99051.97;5052101;28;20025;-76
2022/01/15 05:00:53;;;;;;;80.40;40.13;;;;;;;-2.97;100.00;99042.81;5054853;28;20025;-78
2022/01/15 05:03:18;;;;;;;86.28;41.78;;;;;;;-2.95;100.00;99040.81;5065448;28;20017;-77
2022/01/15 05:05:44;;;;;;;88.47;41.38;;;;;;;-2.94;100.00;99047.81;5061454;28;20124;-77
2022/01/15 05:08:12;;;;;;;84.68;40.45;;;;;;;-3.00;100.00;99056.56;5051989;28;20397;-79
2022/01/15 05:10:45;;;;;;;77.65;40.00;;;;;;;-2.99;100.00;99058.25;5052592;28;20027;-80
2022/01/15 05:13:10;;;;;;;79.35;38.30;;;;;;;-2.99;100.00;99047.53;5051965;28;20082;-78
2022/01/15 05:15:36;;;;;;;85.43;37.70;;;;;;;-2.98;100.00;99056.41;5053262;28;20033;-79
2022/01/15 05:18:01;;;;;;;78.68;40.72;;;;;;;-2.97;100.00;99055.38;5050739;28;20033;-80
2022/01/15 05:20:27;;;;;;;78.57;40.15;;;;;;;-3.02;100.00;99049.75;5054474;28;20107;-79
2022/01/15 05:22:52;;;;;;;83.20;39.35;;;;;;;-3.04;100.00;99057.97;5051700;28;20123;-78
2022/01/15 05:25:18;;;;;;;81.65;39.90;;;;;;;-3.02;100.00;99065.81;5046640;28;20443;-80
2022/01/15 05:27:46;;;;;;;77.28;38.83;;;;;;;-3.07;100.00;99071.69;5040947;28;20573;-78
2022/01/15 05:30:12;;;;;;;79.47;37.90;;;;;;;-3.05;100.00;99066.16;5031171;28;20029;-79
2022/01/15 05:32:39;;;;;;;76.25;39.83;;;;;;;-3.00;100.00;99079.81;5051242;28;20021;-79
2022/01/15 05:35:04;;;;;;;80.15;39.10;;;;;;;-3.11;100.00;99083.78;5050816;28;20025;-77
2022/01/15 05:37:30;;;;;;;82.03;39.40;;;;;;;-3.11;100.00;99088.28;5052133;28;20159;-77
2022/01/15 05:39:56;;;;;;;70.93;37.75;;;;;;;-3.05;100.00;99087.56;5051823;28;20859;-78
2022/01/15 05:42:22;;;;;;;79.32;38.10;;;;;;;-3.16;100.00;99090.69;5054165;28;20028;-83
2022/01/15 05:44:48;;;;;;;79.47;40.92;;;;;;;-3.18;100.00;99098.03;5037330;28;20040;-77
2022/01/15 05:47:13;;;;;;;74.43;38.17;;;;;;;-3.22;100.00;99102.06;5034098;28;20116;-80
2022/01/15 05:49:39;;;;;;;81.53;37.28;;;;;;;-3.32;100.00;99110.38;5032971;28;20032;-77
2022/01/15 05:52:05;;;;;;;79.20;39.30;;;;;;;-3.24;100.00;99107.63;5031677;28;20029;-78
2022/01/15 05:54:30;;;;;;;81.93;39.05;;;;;;;-3.27;100.00;99103.47;5030523;28;20056;-78
2022/01/15 05:56:56;;;;;;;80.78;40.97;;;;;;;-3.27;100.00;99111.50;5031703;28;20072;-77
2022/01/15 05:59:21;;;;;;;79.63;39.55;;;;;;;-3.33;100.00;99100.66;5031900;28;20069;-80
2022/01/15 06:01:47;;;;;;;90.40;43.20;;;;;;;-3.29;100.00;99110.81;5031660;28;20025;-77
2022/01/15 06:04:12;;;;;;;95.88;46.97;;;;;;;-3.38;100.00;99114.56;5030553;28;20040;-79
2022/01/15 06:06:38;;;;;;;86.28;41.58;;;;;;;-3.31;100.00;99120.88;5031283;28;20037;-78
2022/01/15 06:09:03;;;;;;;97.75;45.40;;;;;;;-3.34;100.00;99120.38;5031611;28;20041;-80
2022/01/15 06:11:30;;;;;;;116.43;54.13;;;;;;;-3.45;100.00;99118.16;5031651;28;20029;-79
2022/01/15 06:13:56;;;;;;;108.43;56.42;;;;;;;-3.45;100.00;99127.00;5031979;28;20414;-79
2022/01/15 06:16:22;;;;;;;113.03;52.55;;;;;;;-3.47;100.00;99126.31;5033074;28;20041;-76
2022/01/15 06:18:48;;;;;;;96.03;50.58;;;;;;;-3.52;100.00;99131.38;5038523;28;20026;-82
2022/01/15 06:21:14;;;;;;;99.95;49.72;;;;;;;-3.51;100.00;99130.34;5054684;28;20025;-80
2022/01/15 06:23:39;;;;;;;103.93;50.80;;;;;;;-3.57;100.00;99122.25;5057413;28;20031;-77
2022/01/15 06:26:04;;;;;;;100.07;48.53;;;;;;;-3.38;100.00;99138.63;5056246;28;20029;-78
2022/01/15 06:28:30;;;;;;;97.03;48.35;;;;;;;-3.49;100.00;99144.41;5057516;28;20029;-78
2022/01/15 06:30:55;;;;;;;101.03;49.05;;;;;;;-3.44;100.00;99139.34;5056999;28;20024;-76
2022/01/15 06:33:21;;;;;;;99.82;47.83;;;;;;;-3.50;100.00;99145.41;5057946;28;20060;-78
2022/01/15 06:35:47;;;;;;;102.78;47.90;;;;;;;-3.44;100.00;99144.69;5052714;28;20508;-76
2022/01/15 06:38:12;;;;;;;90.45;44.45;;;;;;;-3.44;100.00;99142.00;5051501;28;20474;-78
2022/01/15 06:40:38;;;;;;;107.63;50.03;;;;;;;-3.41;100.00;99141.66;5064441;28;20017;-78
2022/01/15 06:43:05;;;;;;;121.10;52.45;;;;;;;-3.34;100.00;99147.97;5051702;28;20466;-77
2022/01/15 06:45:31;;;;;;;109.60;50.95;;;;;;;-3.33;100.00;99148.81;5051654;28;20013;-78
2022/01/15 06:47:57;;;;;;;96.93;48.72;;;;;;;-3.35;100.00;99151.66;5050686;28;20025;-78
2022/01/15 06:50:24;;;;;;;99.75;48.47;;;;;;;-3.47;100.00;99150.38;5049937;28;20033;-76
2022/01/15 06:52:50;;;;;;;96.80;46.67;;;;;;;-3.36;100.00;99155.34;5051321;28;20025;-77
2022/01/15 06:55:16;;;;;;;97.82;46.97;;;;;;;-3.31;100.00;99158.31;5050934;28;20049;-76
2022/01/15 06:57:41;;;;;;;97.68;43.97;;;;;;;-3.31;100.00;99157.47;5051004;28;20061;-80
2022/01/15 07:00:09;;;;;;;90.72;42.55;;;;;;;-3.21;100.00;99159.91;5051324;28;20485;-81
2022/01/15 07:02:34;;;;;;;87.85;40.65;;;;;;;-2.99;100.00;99167.94;5051167;28;20030;-80
2022/01/15 07:05:00;;;;;;;79.72;39.10;;;;;;;-2.71;100.00;99160.19;5050917;28;20082;-77
2022/01/15 07:07:26;;;;;;;86.65;40.25;;;;;;;-2.18;100.00;99165.34;5049967;28;20075;-77
2022/01/15 07:09:51;;;;;;;77.68;37.83;;;;;;;-1.71;100.00;99174.81;5052426;28;20028;-78
2022/01/15 07:12:16;;;;;;;70.97;35.40;;;;;;;-1.26;100.00;99179.91;5051931;28;20033;-78
2022/01/15 07:14:42;;;;;;;77.40;36.50;;;;;;;-1.01;100.00;99169.66;5053583;28;20043;-78
2022/01/15 07:17:07;;;;;;;67.80;33.78;;;;;;;-0.78;100.00;99182.84;5057816;28;20033;-78
2022/01/15 07:19:33;;;;;;;68.68;34.10;;;;;;;-0.30;100.00;99187.41;5050283;28;20464;-76
2022/01/15 07:21:59;;;;;;;63.55;31.73;;;;;;;0.12;100.00;99177.56;5030909;28;20030;-78
2022/01/15 07:24:24;;;;;;;60.03;30.48;;;;;;;0.61;100.00;99186.28;5030824;28;20044;-78
2022/01/15 07:26:51;;;;;;;71.13;34.83;;;;;;;0.63;100.00;99183.38;5030644;28;20026;-76
2022/01/15 07:29:16;;;;;;;61.10;32.13;;;;;;;1.06;99.79;99190.97;5030774;28;20091;-76
2022/01/15 07:31:45;;;;;;;57.22;31.25;;;;;;;1.74;96.14;99185.41;5029270;28;20116;-77
2022/01/15 07:34:10;;;;;;;55.38;29.30;;;;;;;1.65;93.23;99190.19;5029164;28;20087;-80
2022/01/15 07:36:37;;;;;;;56.33;28.25;;;;;;;2.09;92.62;99186.84;5030162;28;20426;-81
2022/01/15 07:39:04;;;;;;;57.03;28.90;;;;;;;2.52;88.56;99206.84;5062557;28;20531;-78
2022/01/15 07:41:30;;;;;;;57.22;29.10;;;;;;;2.85;86.85;99198.59;5031331;28;20025;-77
2022/01/15 07:43:55;;;;;;;48.88;28.63;;;;;;;2.93;86.63;99201.06;5043496;28;20848;-75
2022/01/15 07:46:20;;;;;;;51.90;26.20;;;;;;;3.41;85.23;99192.47;5051105;28;20036;-78
2022/01/15 07:48:46;;;;;;;51.83;27.88;;;;;;;3.60;82.78;99213.16;5052170;28;20056;-76
2022/01/15 07:51:11;;;;;;;50.53;28.13;;;;;;;3.97;82.03;99205.97;5048371;28;20057;-76
2022/01/15 07:53:37;;;;;;;52.60;28.88;;;;;;;4.54;78.58;99210.97;5051488;28;20025;-75
2022/01/15 07:56:02;;;;;;;48.40;26.80;;;;;;;4.89;76.63;99216.63;5051315;28;20048;-74
2022/01/15 07:58:28;;;;;;;45.53;26.58;;;;;;;4.94;76.57;99211.34;5051226;28;20028;-81
2022/01/15 08:00:53;;;;;;;52.80;28.45;;;;;;;4.68;77.01;99212.50;5051381;28;20505;-77
2022/01/15 08:03:18;;;;;;;50.85;27.52;;;;;;;5.19;74.90;99219.38;5052252;28;20108;-76
2022/01/15 08:05:44;;;;;;;54.53;29.48;;;;;;;4.56;76.71;99224.31;5051842;28;20375;-78
2022/01/15 08:08:09;;;;;;;52.63;32.05;;;;;;;4.92;76.46;99218.88;5051746;28;20036;-79
2022/01/15 08:10:38;;;;;;;59.53;30.55;;;;;;;4.74;75.60;99221.59;5052862;28;20029;-76
2022/01/15 08:13:03;;;;;;;59.63;31.98;;;;;;;5.50;73.62;99213.69;5047707;28;20021;-77
2022/01/15 08:15:29;;;;;;;61.75;33.78;;;;;;;4.76;75.05;99214.09;5053265;28;20497;-76
2022/01/15 08:17:54;;;;;;;59.40;35.10;;;;;;;4.79;76.34;99217.16;5053276;28;20036;-79
2022/01/15 08:20:20;;;;;;;63.10;35.92;;;;;;;4.86;74.97;99225.22;5052163;28;20021;-77
2022/01/15 08:22:51;;;;;;;60.72;35.10;;;;;;;5.05;74.98;99215.16;5051312;28;20025;-76
2022/01/15 08:25:20;;;;;;;56.13;33.63;;;;;;;5.63;71.75;99215.38;5052484;28;20059;-76
2022/01/15 08:27:49;;;;;;;55.40;31.30;;;;;;;5.67;72.21;99217.38;5052206;28;20020;-75
2022/01/15 08:30:19;;;;;;;56.70;32.30;;;;;;;5.97;70.98;99217.38;5050399;28;20020;-77
2022/01/15 08:32:47;;;;;;;60.17;30.58;;;;;;;6.15;71.35;99217.25;5052189;28;20416;-78
2022/01/15 08:35:13;;;;;;;45.72;28.27;;;;;;;6.86;68.28;99222.38;5052219;28;20024;-78
2022/01/15 08:37:39;;;;;;;48.72;27.65;;;;;;;7.22;66.30;99220.41;5052045;28;20067;-76
2022/01/15 08:40:10;;;;;;;49.92;29.17;;;;;;;7.05;66.66;99223.03;5051904;28;20074;-76
2022/01/15 08:42:40;;;;;;;47.75;28.80;;;;;;;6.72;68.07;99225.63;5051565;28;20033;-76
2022/01/15 08:45:07;;;;;;;49.45;29.25;;;;;;;7.28;66.78;99225.69;5060907;28;20040;-81
2022/01/15 08:47:33;;;;;;;53.33;29.77;;;;;;;7.04;67.77;99224.13;5065012;28;20056;-76
2022/01/15 08:49:58;;;;;;;51.08;29.75;;;;;;;7.67;65.62;99231.31;5050796;28;20045;-77
2022/01/15 08:52:24;;;;;;;51.65;30.10;;;;;;;7.33;66.08;99230.44;5043229;28;20436;-76
2022/01/15 08:54:50;;;;;;;54.47;31.70;;;;;;;7.51;65.22;99224.78;5051917;28;20041;-76
2022/01/15 08:57:15;;;;;;;49.13;29.30;;;;;;;7.74;64.40;99224.63;5051509;28;20032;-75
2022/01/15 08:59:41;;;;;;;52.47;30.05;;;;;;;7.77;64.34;99217.91;5049977;28;20017;-76
2022/01/15 09:02:06;;;;;;;60.67;37.30;;;;;;;7.54;65.06;99216.13;5051329;28;20025;-77
2022/01/15 09:04:32;;;;;;;50.03;28.13;;;;;;;7.88;64.49;99227.88;5053396;28;20172;-81
2022/01/15 09:07:00;;;;;;;43.03;27.67;;;;;;;7.75;64.74;99228.19;5045421;28;20121;-84
2022/01/15 09:09:26;;;;;;;63.15;33.08;;;;;;;7.89;64.89;99227.63;5042456;28;20018;-87
2022/01/15 09:11:51;;;;;;;48.35;28.83;;;;;;;7.97;64.50;99227.22;5043153;28;20085;-82
2022/01/15 09:14:17;;;;;;;54.05;30.65;;;;;;;8.09;64.87;99218.97;5045115;28;20018;-88
2022/01/15 09:16:42;;;;;;;50.92;28.23;;;;;;;8.56;63.62;99233.06;5042267;28;20414;-87
2022/01/15 09:19:08;;;;;;;50.05;29.15;;;;;;;9.06;61.50;99222.84;5065402;28;20081;-81
2022/01/15 09:21:34;;;;;;;45.65;28.63;;;;;;;8.87;61.36;99235.16;5063862;28;20033;-83
2022/01/15 09:24:00;;;;;;;51.67;31.00;;;;;;;9.33;60.55;99239.28;5057754;28;20029;-76
2022/01/15 09:26:47;;;;;;;60.60;39.90;;;;;;;9.13;60.85;99239.03;5068732;28;20020;-76
2022/01/15 09:31:57;;;;;;;53.33;32.10;;;;;;;9.10;61.32;99228.63;5065852;28;20035;-76
2022/01/15 09:34:22;;;;;;;88.18;46.78;;;;;;;9.00;62.00;99223.03;5060530;28;20025;-76
2022/01/15 09:36:48;;;;;;;106.80;57.95;;;;;;;9.35;60.76;99218.00;5050933;28;20035;-75
2022/01/15 09:39:13;;;;;;;70.30;40.55;;;;;;;8.67;62.92;99223.16;5050460;28;20406;-75
2022/01/15 09:41:45;;;;;;;64.93;36.40;;;;;;;9.38;60.89;99222.94;5045692;28;20398;-74
2022/01/15 09:44:12;;;;;;;90.55;49.08;;;;;;;9.09;61.73;99216.03;5059947;28;20040;-77
2022/01/15 09:46:38;;;;;;;134.27;70.88;;;;;;;9.22;61.53;99215.66;5066262;28;20082;-74
2022/01/15 09:49:03;;;;;;;65.63;36.38;;;;;;;8.75;63.54;99214.50;5061724;28;20021;-75
2022/01/15 09:51:29;;;;;;;72.30;40.08;;;;;;;8.76;63.73;99219.72;5055064;28;20398;-76
2022/01/15 09:53:56;;;;;;;69.57;38.85;;;;;;;9.07;61.72;99223.66;5050246;28;20538;-75
2022/01/15 09:56:21;;;;;;;59.47;33.42;;;;;;;9.39;60.84;99224.59;5052587;28;20035;-76
2022/01/15 09:58:47;;;;;;;61.05;33.13;;;;;;;9.69;60.31;99219.47;5051783;28;20124;-75
2022/01/15 10:01:12;;;;;;;60.95;31.88;;;;;;;10.38;58.45;99211.31;5053899;28;20025;-75
2022/01/15 10:03:39;;;;;;;50.50;32.22;;;;;;;10.10;59.33;99217.09;5057180;28;20075;-76
2022/01/15 10:06:06;;;;;;;53.10;31.42;;;;;;;10.23;58.80;99211.22;5048039;28;20104;-75
2022/01/15 10:08:32;;;;;;;48.58;29.90;;;;;;;9.88;60.29;99205.41;5048287;28;20028;-75
2022/01/15 10:11:01;;;;;;;52.50;32.40;;;;;;;9.74;60.26;99201.47;5050613;28;20079;-75
2022/01/15 10:13:30;;;;;;;49.67;31.48;;;;;;;9.58;60.78;99190.41;5044646;28;20759;-73
2022/01/15 10:15:55;;;;;;;59.25;30.50;;;;;;;10.36;59.20;99190.78;5048341;28;20044;-75
2022/01/15 10:18:27;;;;;;;47.88;28.95;;;;;;;10.42;59.49;99192.47;5048144;28;20079;-75
2022/01/15 10:20:55;;;;;;;69.00;38.05;;;;;;;10.47;59.00;99182.38;5047457;28;20116;-76
2022/01/15 10:23:23;;;;;;;72.53;39.78;;;;;;;10.41;58.46;99164.28;5045553;28;20013;-74
2022/01/15 10:26:14;;;;;;;67.82;37.67;;;;;;;10.54;58.60;99177.50;5047702;28;20417;-77
2022/01/15 10:28:48;;;;;;;63.28;36.85;;;;;;;11.21;56.91;99179.44;5049375;28;20032;-77
2022/01/15 10:31:21;;;;;;;70.80;39.28;;;;;;;10.77;57.46;99175.44;5046105;28;20497;-75
2022/01/15 10:33:47;;;;;;;57.25;33.03;;;;;;;11.39;56.04;99168.00;5043880;28;20033;-75
2022/01/15 10:36:32;;;;;;;52.17;30.88;;;;;;;11.82;54.52;99166.69;5046869;28;20450;-76
2022/01/15 10:39:20;;;;;;;54.30;33.03;;;;;;;11.77;54.54;99162.06;5046333;28;20029;-73
2022/01/15 10:41:47;;;;;;;57.20;30.65;;;;;;;11.52;55.34;99156.50;5053288;28;20024;-74
2022/01/15 10:44:33;;;;;;;44.80;29.92;;;;;;;11.57;54.43;99156.50;5057593;28;20037;-76
2022/01/15 10:47:01;;;;;;;48.95;28.55;;;;;;;11.78;54.17;99152.72;5046549;28;20033;-76
2022/01/15 10:49:26;;;;;;;49.65;27.67;;;;;;;11.57;55.17;99144.72;5054501;28;20041;-77
2022/01/15 10:52:22;;;;;;;47.92;27.95;;;;;;;12.36;53.28;99136.78;5049805;28;20029;-75
2022/01/15 10:54:58;;;;;;;51.55;32.03;;;;;;;11.39;54.83;99135.13;5056259;28;20076;-81
2022/01/15 10:57:27;;;;;;;49.58;29.20;;;;;;;11.64;54.74;99131.56;5072056;28;20024;-74
2022/01/15 11:00:13;;;;;;;41.03;27.15;;;;;;;11.86;54.77;99120.38;5056877;28;20026;-75
2022/01/15 11:02:40;;;;;;;44.20;25.88;;;;;;;11.81;54.54;99110.22;5030555;28;20390;-73
2022/01/15 11:05:38;;;;;;;32.38;19.33;;;;;;;12.28;53.71;99112.63;5058385;28;20093;-75
2022/01/15 11:08:04;;;;;;;29.48;18.60;;;;;;;11.77;54.81;99112.72;5036156;28;20029;-74
2022/01/15 11:10:40;;;;;;;34.28;21.92;;;;;;;11.87;54.41;99111.06;5062162;28;20032;-75
2022/01/15 11:13:10;;;;;;;29.30;17.95;;;;;;;11.67;54.98;99107.19;5049418;28;20028;-75
2022/01/15 11:15:36;;;;;;;28.42;17.10;;;;;;;11.81;55.70;99097.34;5043582;28;20066;-75
2022/01/15 11:18:03;;;;;;;24.20;13.60;;;;;;;11.93;53.95;99090.75;5040170;28;20060;-75
2022/01/15 11:20:31;;;;;;;20.45;13.23;;;;;;;11.27;56.18;99097.03;5038167;28;20017;-76
2022/01/15 11:22:56;;;;;;;21.35;12.30;;;;;;;11.17;57.00;99087.97;5058981;28;20032;-77
2022/01/15 11:25:22;;;;;;;21.52;12.68;;;;;;;11.31;56.80;99091.00;5069399;28;20044;-75
2022/01/15 11:27:48;;;;;;;20.40;12.95;;;;;;;11.33;56.53;99083.31;5052584;28;20438;-75
2022/01/15 11:30:14;;;;;;;23.75;14.00;;;;;;;11.59;55.86;99072.09;5065262;28;20428;-77
2022/01/15 11:32:43;;;;;;;18.55;12.35;;;;;;;11.43;56.28;99075.97;5068972;28;20025;-75
2022/01/15 11:35:10;;;;;;;21.83;14.45;;;;;;;11.09;56.95;99061.09;5069122;28;20474;-75